Aurora State Airport
KUAO : now visible

Airfield :











YOU CAN JOIN US ON...

 
LOGIN :

Register | Disclaimer

   EN    FR    IT 

 









Legend :    VFR   Marginal VFR   IFR   Intensive IFR   Very Intensive IFR
Visi :
Ceiling :
>= 8 km
>= 3000ft
5 to 8 km
1000 to 3000 ft
1500m to 5 km
500 to 1000 ft
800 to 1500m
200 to 500 ft
< 800m
< 200 ft
Symbols :   Thunderstorms  Fog  Heavy snow  Heavy precipitations  Wind > 20 kt






- Airport Elevation : 200 ft


KUAO - Aurora State

CURRENT METAR :
  • 291653Z 00000KT 10SM CLR 21/09 A2994 RMK AO2 SLP136 T02110089

EXPIRED METARs :
  • 291553Z 06003KT 10SM CLR 20/09 A2995 RMK AO2 SLP141 T02000089
  • 291453Z 35003KT 10SM CLR 18/09 A2996 RMK AO2 SLP143 T01830089 51009

TAF KUAO
Valid from the 29 at 12:00 until the 30 at 12:00 UTC


291120Z 2912/3012 VRB03KT P6SM SKC
FM292200 02005KT P6SM SCT050 BKN200
FM300400 34005KT P6SM OVC200
KZSE FIR / North America



MET'MAP, your aeronautical weather chart ! - Copyright ORBIFLY December 2007 - Disclaimer

ORBIFLY MET'MAP TEAM :

Programming & Development : Alexandra Zaïnal
Concept & original design : Baudouin d'Aumeries
Assistance for programming : Marc-Olivier Méhu
Technical & hardware support : Manuel Goepfert

Contact : metmap@orbifly.com




SOURCES & CREDITS :

   NOAA       Earth
Advisory